Flight Number: EUR3019 Duration: 7:00
Departure: Baltimore Washington Intl (KBWI) at 07:00 Distance: 3173 Nm
Arrival: Gatwick Airport (EGKK) at 14:00 Equipment: B777

Weather Information
BALTIMORE-WASHINGTON INTERNATIONAL , MD, United States (KBWI) 39-10N 076-41W 59M Sep 21, 2017 - 09:54 AM EDT / 2017.09.21 1354 UTC
Wind: from the N (360 degrees) at 3 MPH (3 KT):0
Visibility: 10 mile(s):0
Sky conditions: partly cloudy Temperature: 78.1 F (25.6 C) Dew Point: 64.9 F (18.3 C) Relative Humidity: 64% Pressure (altimeter): 30.06 in. Hg (1017 hPa)
ob: KBWI 211354Z 36003KT 10SM FEW120 SCT200 26/18 A3006 RMK AO2 SLP176 T02560183 cycle: 14
Sunrise: 10:57 Sunset: 23:01 (UTC)

London / Gatwick Airport, United Kingdom (EGKK) 51-09N 000-11W 0M Sep 21, 2017 - 09:50 AM EDT / 2017.09.21 1350 UTC
Wind: from the SSW (200 degrees) at 10 MPH (9 KT) (direction variable):0
Visibility: greater than 7 mile(s):0
Sky conditions: mostly cloudy Temperature: 62 F (17 C) Dew Point: 53 F (12 C) Relative Humidity: 72% Pressure (altimeter): 29.94 in. Hg (1014 hPa)
ob: EGKK 211350Z 20009KT 150V230 9999 BKN021 BKN038 17/12 Q1014 cycle: 14
Sunrise: 05:50 Sunset: 17:57 (UTC)

TAF:2017/09/21 12:15 TAF EGKK 211056Z 2112/2218 20012KT 9999 SCT030 TEMPO 2113/2118 8000 -RA BKN012 PROB30 TEMPO 2114/2117 4000 RA BKN008 BECMG 2116/2119 28005KT BECMG 2122/2201 7000 TEMPO 2201/2208 3000 BR BCFG PROB40 2203/2208 0400 FG BKN001 BECMG 2208/2211 9999

Previous Pireps for this route
Date Aircraft Flight time Fuel used Landing rate On time
2013-02-04A34007.09176480-953No
2013-12-03B7479.10171000Yes
2016-06-07B77706.36127079-304No
(pireps marked green are flown by you)

Route map